Midway Park, North Carolina
Current Conditions -  °F | °C
As of 7:56 PM on Saturday 22 Nov 2014 (Local Time) from KNCA Reporting Station
Clear Clear  
Wind Chill: 41°   Ceiling: Unl
Heat Index: 41°   Visibility: 10mi
Dew Point: 38°   Wind: 0mph
Humidity: 89%   Direction: NA
Pressure: 30.38"   Gusts: NA
Location:  34.73°N, 77.34°W
Report Text: KNCA 230056Z AUTO 00000KT 10SM CLR 05/03 A3038 RMK AO2 SLP288 T00500033 $
Loading
Personal Weather Stations






























Interactive Weather Map New forecast layout! Learn more

10-Day Weather Forecast

Advertisements
Track Severe Weather on mobile